sensor_id;sensor_type;location;lat;lon;timestamp;pressure;altitude;pressure_sealevel;temperature;humidity
34197;BME280;36594;45.192;5.722;2022-07-04T00:01:45;99257.19;;;29.21;39.75
34197;BME280;36594;45.192;5.722;2022-07-04T00:04:34;99249.42;;;29.25;39.66
34197;BME280;36594;45.192;5.722;2022-07-04T00:07:22;99250.79;;;29.28;39.49
34197;BME280;36594;45.192;5.722;2022-07-04T00:10:13;99241.93;;;29.31;39.34
34197;BME280;36594;45.192;5.722;2022-07-04T00:13:01;99243.03;;;29.30;38.99
34197;BME280;36594;45.192;5.722;2022-07-04T00:15:50;99241.11;;;29.28;38.80
34197;BME280;36594;45.192;5.722;2022-07-04T00:18:38;99234.51;;;29.21;38.67
34197;BME280;36594;45.192;5.722;2022-07-04T00:21:27;99252.20;;;29.23;38.51
34197;BME280;36594;45.192;5.722;2022-07-04T00:24:15;99215.94;;;29.24;38.63
34197;BME280;36594;45.192;5.722;2022-07-04T00:27:04;99219.80;;;29.31;38.66
34197;BME280;36594;45.192;5.722;2022-07-04T00:29:53;99242.70;;;29.39;38.59
34197;BME280;36594;45.192;5.722;2022-07-04T00:32:41;99267.58;;;29.44;38.52
34197;BME280;36594;45.192;5.722;2022-07-04T00:35:29;99270.64;;;29.43;38.40
34197;BME280;36594;45.192;5.722;2022-07-04T00:38:17;99283.14;;;29.32;38.36
34197;BME280;36594;45.192;5.722;2022-07-04T00:41:06;99275.41;;;29.27;38.44
34197;BME280;36594;45.192;5.722;2022-07-04T00:44:05;99294.53;;;29.21;38.50
34197;BME280;36594;45.192;5.722;2022-07-04T00:46:54;99308.92;;;29.18;38.49
34197;BME280;36594;45.192;5.722;2022-07-04T00:49:43;99298.43;;;29.10;38.57
34197;BME280;36594;45.192;5.722;2022-07-04T00:52:31;99299.81;;;29.10;38.48
34197;BME280;36594;45.192;5.722;2022-07-04T00:55:22;99291.78;;;29.06;38.44
34197;BME280;36594;45.192;5.722;2022-07-04T00:58:12;99309.53;;;28.95;38.55
34197;BME280;36594;45.192;5.722;2022-07-04T01:01:01;99318.38;;;28.92;38.55
34197;BME280;36594;45.192;5.722;2022-07-04T01:03:49;99317.29;;;28.88;38.52
34197;BME280;36594;45.192;5.722;2022-07-04T01:06:38;99315.91;;;28.88;38.59
34197;BME280;36594;45.192;5.722;2022-07-04T01:09:26;99324.49;;;28.89;38.63
34197;BME280;36594;45.192;5.722;2022-07-04T01:12:28;99334.42;;;28.95;38.62
34197;BME280;36594;45.192;5.722;2022-07-04T01:15:17;99326.41;;;28.98;38.53
34197;BME280;36594;45.192;5.722;2022-07-04T01:18:05;99327.78;;;29.03;38.49
34197;BME280;36594;45.192;5.722;2022-07-04T01:20:54;99329.41;;;29.12;38.42
34197;BME280;36594;45.192;5.722;2022-07-04T01:23:43;99323.59;;;29.21;38.32
34197;BME280;36594;45.192;5.722;2022-07-04T01:26:31;99332.70;;;29.29;38.21
34197;BME280;36594;45.192;5.722;2022-07-04T01:29:20;99330.72;;;29.34;38.14
34197;BME280;36594;45.192;5.722;2022-07-04T01:32:09;99333.23;;;29.33;38.19
34197;BME280;36594;45.192;5.722;2022-07-04T01:34:58;99336.25;;;29.37;38.14
34197;BME280;36594;45.192;5.722;2022-07-04T01:37:47;99337.08;;;29.37;38.20
34197;BME280;36594;45.192;5.722;2022-07-04T01:40:36;99339.55;;;29.41;38.16
34197;BME280;36594;45.192;5.722;2022-07-04T01:43:24;99346.75;;;29.43;38.15
34197;BME280;36594;45.192;5.722;2022-07-04T01:46:13;99337.61;;;29.45;38.15
34197;BME280;36594;45.192;5.722;2022-07-04T01:49:01;99329.56;;;29.43;38.14
34197;BME280;36594;45.192;5.722;2022-07-04T01:51:50;99325.70;;;29.44;38.19
34197;BME280;36594;45.192;5.722;2022-07-04T01:54:39;99324.30;;;29.47;38.14
34197;BME280;36594;45.192;5.722;2022-07-04T01:57:27;99330.13;;;29.48;38.17
34197;BME280;36594;45.192;5.722;2022-07-04T02:00:15;99323.20;;;29.48;38.20
34197;BME280;36594;45.192;5.722;2022-07-04T02:03:22;99319.31;;;29.49;38.22
34197;BME280;36594;45.192;5.722;2022-07-04T02:06:11;99316.55;;;29.46;38.26
34197;BME280;36594;45.192;5.722;2022-07-04T02:09:00;99312.94;;;29.48;38.24
34197;BME280;36594;45.192;5.722;2022-07-04T02:12:04;99302.16;;;29.49;38.24
34197;BME280;36594;45.192;5.722;2022-07-04T02:15:11;99300.77;;;29.49;38.27
34197;BME280;36594;45.192;5.722;2022-07-04T02:17:59;99299.69;;;29.45;38.34
34197;BME280;36594;45.192;5.722;2022-07-04T02:20:48;99302.98;;;29.50;38.28
34197;BME280;36594;45.192;5.722;2022-07-04T02:23:37;99299.92;;;29.51;38.28
34197;BME280;36594;45.192;5.722;2022-07-04T02:26:26;99293.29;;;29.52;38.30
34197;BME280;36594;45.192;5.722;2022-07-04T02:29:15;99292.45;;;29.52;38.29
34197;BME280;36594;45.192;5.722;2022-07-04T02:32:04;99282.78;;;29.49;38.31
34197;BME280;36594;45.192;5.722;2022-07-04T02:34:53;99296.86;;;29.53;38.31
34197;BME280;36594;45.192;5.722;2022-07-04T02:37:42;99296.61;;;29.52;38.32
34197;BME280;36594;45.192;5.722;2022-07-04T02:40:30;99283.86;;;29.53;38.32
34197;BME280;36594;45.192;5.722;2022-07-04T02:43:18;99278.32;;;29.53;38.37
34197;BME280;36594;45.192;5.722;2022-07-04T02:46:07;99277.22;;;29.54;38.33
34197;BME280;36594;45.192;5.722;2022-07-04T02:48:55;99284.69;;;29.54;38.30
34197;BME280;36594;45.192;5.722;2022-07-04T02:51:44;99279.98;;;29.54;38.31
34197;BME280;36594;45.192;5.722;2022-07-04T02:54:32;99288.84;;;29.54;38.27
34197;BME280;36594;45.192;5.722;2022-07-04T02:57:20;99299.92;;;29.51;38.34
34197;BME280;36594;45.192;5.722;2022-07-04T03:00:10;99301.31;;;29.51;38.33
34197;BME280;36594;45.192;5.722;2022-07-04T03:02:59;99297.72;;;29.48;38.44
34197;BME280;36594;45.192;5.722;2022-07-04T03:05:48;99293.29;;;29.52;38.39
34197;BME280;36594;45.192;5.722;2022-07-04T03:08:36;99283.86;;;29.53;38.31
34197;BME280;36594;45.192;5.722;2022-07-04T03:11:25;99284.16;;;29.52;38.38
34197;BME280;36594;45.192;5.722;2022-07-04T03:14:14;99286.63;;;29.51;38.41
34197;BME280;36594;45.192;5.722;2022-07-04T03:17:02;99286.09;;;29.51;38.42
34197;BME280;36594;45.192;5.722;2022-07-04T03:19:51;99283.31;;;29.51;38.44
34197;BME280;36594;45.192;5.722;2022-07-04T03:22:40;99278.06;;;29.52;38.40
34197;BME280;36594;45.192;5.722;2022-07-04T03:25:28;99281.64;;;29.53;38.43
34197;BME280;36594;45.192;5.722;2022-07-04T03:28:17;99281.38;;;29.54;38.41
34197;BME280;36594;45.192;5.722;2022-07-04T03:31:06;99291.92;;;29.50;38.49
34197;BME280;36594;45.192;5.722;2022-07-04T03:33:54;99292.48;;;29.47;38.54
34197;BME280;36594;45.192;5.722;2022-07-04T03:36:43;99294.72;;;29.42;38.69
34197;BME280;36594;45.192;5.722;2022-07-04T03:39:31;99284.77;;;29.36;38.88
34197;BME280;36594;45.192;5.722;2022-07-04T03:42:19;99290.03;;;29.37;38.87
34197;BME280;36594;45.192;5.722;2022-07-04T03:45:09;99289.20;;;29.39;38.86
34197;BME280;36594;45.192;5.722;2022-07-04T03:47:57;99286.13;;;29.41;38.85
34197;BME280;36594;45.192;5.722;2022-07-04T03:50:46;99279.75;;;29.43;38.83
34197;BME280;36594;45.192;5.722;2022-07-04T03:53:35;99280.02;;;29.47;38.73
34197;BME280;36594;45.192;5.722;2022-07-04T03:56:23;99282.56;;;29.40;38.89
34197;BME280;36594;45.192;5.722;2022-07-04T03:59:12;99293.66;;;29.33;39.06
34197;BME280;36594;45.192;5.722;2022-07-04T04:02:00;99297.84;;;29.23;39.28
34197;BME280;36594;45.192;5.722;2022-07-04T04:04:48;99311.12;;;29.16;39.38
34197;BME280;36594;45.192;5.722;2022-07-04T04:08:01;99311.41;;;29.17;39.49
34197;BME280;36594;45.192;5.722;2022-07-04T04:10:45;99307.53;;;29.13;39.62
34197;BME280;36594;45.192;5.722;2022-07-04T04:13:34;99311.45;;;29.02;39.76
34197;BME280;36594;45.192;5.722;2022-07-04T04:16:23;99306.22;;;28.95;39.87
34197;BME280;36594;45.192;5.722;2022-07-04T04:19:11;99316.18;;;28.96;39.93
34197;BME280;36594;45.192;5.722;2022-07-04T04:21:59;99322.52;;;28.92;40.08
34197;BME280;36594;45.192;5.722;2022-07-04T04:24:48;99329.18;;;28.93;40.00
34197;BME280;36594;45.192;5.722;2022-07-04T04:27:36;99335.25;;;28.98;39.98
34197;BME280;36594;45.192;5.722;2022-07-04T04:30:25;99342.45;;;28.96;39.91
34197;BME280;36594;45.192;5.722;2022-07-04T04:33:14;99346.61;;;28.94;40.07
34197;BME280;36594;45.192;5.722;2022-07-04T04:36:03;99344.95;;;28.83;40.27
34197;BME280;36594;45.192;5.722;2022-07-04T04:38:51;99348.04;;;28.63;40.64
34197;BME280;36594;45.192;5.722;2022-07-04T04:41:40;99348.30;;;28.49;40.96
34197;BME280;36594;45.192;5.722;2022-07-04T04:44:28;99351.30;;;28.40;41.16
34197;BME280;36594;45.192;5.722;2022-07-04T04:47:17;99349.66;;;28.29;41.42
34197;BME280;36594;45.192;5.722;2022-07-04T04:50:06;99349.66;;;28.17;41.55
34197;BME280;36594;45.192;5.722;2022-07-04T04:52:56;99354.33;;;28.06;41.64
34197;BME280;36594;45.192;5.722;2022-07-04T04:55:45;99360.39;;;28.03;41.71
34197;BME280;36594;45.192;5.722;2022-07-04T04:58:33;99361.23;;;28.06;41.73
34197;BME280;36594;45.192;5.722;2022-07-04T05:01:21;99361.52;;;28.20;41.55
34197;BME280;36594;45.192;5.722;2022-07-04T05:04:10;99356.83;;;28.20;41.48
34197;BME280;36594;45.192;5.722;2022-07-04T05:06:58;99355.73;;;28.31;41.34
34197;BME280;36594;45.192;5.722;2022-07-04T05:09:48;99347.73;;;28.37;41.36
34197;BME280;36594;45.192;5.722;2022-07-04T05:12:35;99355.20;;;28.44;41.32
34197;BME280;36594;45.192;5.722;2022-07-04T05:15:24;99356.00;;;28.52;41.15
34197;BME280;36594;45.192;5.722;2022-07-04T05:18:13;99355.78;;;28.59;41.07
34197;BME280;36594;45.192;5.722;2022-07-04T05:21:03;99354.92;;;28.68;40.86
34197;BME280;36594;45.192;5.722;2022-07-04T05:23:52;99363.21;;;28.79;40.61
34197;BME280;36594;45.192;5.722;2022-07-04T05:26:42;99361.53;;;28.83;40.50
34197;BME280;36594;45.192;5.722;2022-07-04T05:29:30;99356.00;;;28.88;40.38
34197;BME280;36594;45.192;5.722;2022-07-04T05:32:19;99360.69;;;28.92;40.31
34197;BME280;36594;45.192;5.722;2022-07-04T05:35:10;99359.02;;;28.99;40.21
34197;BME280;36594;45.192;5.722;2022-07-04T05:37:58;99361.23;;;29.02;40.14
34197;BME280;36594;45.192;5.722;2022-07-04T05:40:47;99359.30;;;29.05;40.15
34197;BME280;36594;45.192;5.722;2022-07-04T05:43:35;99354.84;;;29.09;40.08
34197;BME280;36594;45.192;5.722;2022-07-04T05:46:24;99357.06;;;29.12;40.03
34197;BME280;36594;45.192;5.722;2022-07-04T05:49:12;99357.86;;;29.17;40.05
34197;BME280;36594;45.192;5.722;2022-07-04T05:52:00;99360.11;;;29.18;39.92
34197;BME280;36594;45.192;5.722;2022-07-04T05:54:49;99352.34;;;29.20;39.94
34197;BME280;36594;45.192;5.722;2022-07-04T05:57:37;99358.42;;;29.24;39.88
34197;BME280;36594;45.192;5.722;2022-07-04T06:00:25;99357.03;;;29.24;39.90
34197;BME280;36594;45.192;5.722;2022-07-04T06:03:13;99362.02;;;29.25;39.88
34197;BME280;36594;45.192;5.722;2022-07-04T06:06:02;99361.47;;;29.28;39.81
34197;BME280;36594;45.192;5.722;2022-07-04T06:08:51;99357.60;;;29.29;39.83
34197;BME280;36594;45.192;5.722;2022-07-04T06:11:39;99357.86;;;29.30;39.80
34197;BME280;36594;45.192;5.722;2022-07-04T06:14:28;99352.86;;;29.32;39.71
34197;BME280;36594;45.192;5.722;2022-07-04T06:17:16;99351.23;;;29.31;39.70
34197;BME280;36594;45.192;5.722;2022-07-04T06:20:06;99350.38;;;29.38;39.70
34197;BME280;36594;45.192;5.722;2022-07-04T06:22:55;99339.84;;;29.40;39.62
34197;BME280;36594;45.192;5.722;2022-07-04T06:25:44;99336.23;;;29.42;39.58
34197;BME280;36594;45.192;5.722;2022-07-04T06:28:32;99340.91;;;29.47;39.57
34197;BME280;36594;45.192;5.722;2022-07-04T06:31:21;99338.43;;;29.48;39.56
34197;BME280;36594;45.192;5.722;2022-07-04T06:34:09;99338.44;;;29.45;39.57
34197;BME280;36594;45.192;5.722;2022-07-04T06:37:15;99336.21;;;29.47;39.61
34197;BME280;36594;45.192;5.722;2022-07-04T06:40:06;99333.16;;;29.46;39.61
34197;BME280;36594;45.192;5.722;2022-07-04T06:42:55;99335.37;;;29.49;39.71
34197;BME280;36594;45.192;5.722;2022-07-04T06:45:43;99331.75;;;29.51;39.84
34197;BME280;36594;45.192;5.722;2022-07-04T06:48:32;99328.98;;;29.51;39.87
34197;BME280;36594;45.192;5.722;2022-07-04T06:51:20;99319.30;;;29.51;39.93
34197;BME280;36594;45.192;5.722;2022-07-04T06:54:09;99318.99;;;29.55;40.18
34197;BME280;36594;45.192;5.722;2022-07-04T06:56:57;99320.38;;;29.55;40.40
34197;BME280;36594;45.192;5.722;2022-07-04T06:59:46;99310.97;;;29.59;40.26
34197;BME280;36594;45.192;5.722;2022-07-04T07:02:35;99315.37;;;29.60;40.34
34197;BME280;36594;45.192;5.722;2022-07-04T07:05:25;99304.02;;;29.64;40.29
34197;BME280;36594;45.192;5.722;2022-07-04T07:08:14;99294.31;;;29.66;40.32
34197;BME280;36594;45.192;5.722;2022-07-04T07:11:03;99302.88;;;29.67;40.32
34197;BME280;36594;45.192;5.722;2022-07-04T07:14:00;99295.95;;;29.67;40.29
34197;BME280;36594;45.192;5.722;2022-07-04T07:16:48;99304.57;;;29.63;40.33
34197;BME280;36594;45.192;5.722;2022-07-04T07:19:37;99309.25;;;29.68;40.38
34197;BME280;36594;45.192;5.722;2022-07-04T07:22:25;99311.72;;;29.69;40.34
34197;BME280;36594;45.192;5.722;2022-07-04T07:25:13;99313.39;;;29.70;40.32
34197;BME280;36594;45.192;5.722;2022-07-04T07:28:02;99307.54;;;29.74;40.49
34197;BME280;36594;45.192;5.722;2022-07-04T07:30:50;99302.00;;;29.74;40.45
34197;BME280;36594;45.192;5.722;2022-07-04T07:33:39;99305.05;;;29.75;40.41
34197;BME280;36594;45.192;5.722;2022-07-04T07:36:27;99302.28;;;29.75;40.45
34197;BME280;36594;45.192;5.722;2022-07-04T07:39:16;99299.23;;;29.79;40.47
34197;BME280;36594;45.192;5.722;2022-07-04T07:42:05;99301.14;;;29.84;40.48
34197;BME280;36594;45.192;5.722;2022-07-04T07:44:53;99296.47;;;29.79;40.62
34197;BME280;36594;45.192;5.722;2022-07-04T07:47:41;99311.13;;;29.82;40.58
34197;BME280;36594;45.192;5.722;2022-07-04T07:50:30;99306.41;;;29.80;40.55
34197;BME280;36594;45.192;5.722;2022-07-04T07:53:18;99305.33;;;29.79;40.61
34197;BME280;36594;45.192;5.722;2022-07-04T07:56:07;99298.11;;;29.80;40.67
34197;BME280;36594;45.192;5.722;2022-07-04T07:58:56;99302.01;;;29.79;40.66
34197;BME280;36594;45.192;5.722;2022-07-04T08:01:44;99308.36;;;29.82;40.66
34197;BME280;36594;45.192;5.722;2022-07-04T08:04:33;99308.60;;;29.86;40.48
34197;BME280;36594;45.192;5.722;2022-07-04T08:07:25;99310.29;;;29.84;40.52
34197;BME280;36594;45.192;5.722;2022-07-04T08:10:14;99308.62;;;29.83;40.49
34197;BME280;36594;45.192;5.722;2022-07-04T08:13:04;99314.16;;;29.83;40.61
34197;BME280;36594;45.192;5.722;2022-07-04T08:15:52;99311.67;;;29.84;40.88
34197;BME280;36594;45.192;5.722;2022-07-04T08:18:41;99303.08;;;29.83;40.80
34197;BME280;36594;45.192;5.722;2022-07-04T08:21:29;99300.86;;;29.83;40.74
34197;BME280;36594;45.192;5.722;2022-07-04T08:24:18;99294.20;;;29.86;40.67
34197;BME280;36594;45.192;5.722;2022-07-04T08:27:06;99294.73;;;29.91;40.61
34197;BME280;36594;45.192;5.722;2022-07-04T08:29:54;99293.66;;;29.87;40.72
34197;BME280;36594;45.192;5.722;2022-07-04T08:32:43;99302.50;;;29.89;40.69
34197;BME280;36594;45.192;5.722;2022-07-04T08:35:31;99300.00;;;29.87;40.65
34197;BME280;36594;45.192;5.722;2022-07-04T08:38:21;99289.75;;;29.88;40.64
34197;BME280;36594;45.192;5.722;2022-07-04T08:41:09;99292.52;;;29.88;40.59
34197;BME280;36594;45.192;5.722;2022-07-04T08:43:57;99286.42;;;29.91;40.51
34197;BME280;36594;45.192;5.722;2022-07-04T08:46:48;99283.36;;;29.90;40.61
34197;BME280;36594;45.192;5.722;2022-07-04T08:49:39;99273.41;;;29.91;40.63
34197;BME280;36594;45.192;5.722;2022-07-04T08:52:37;99279.81;;;29.87;40.70
34197;BME280;36594;45.192;5.722;2022-07-04T08:55:26;99290.57;;;29.91;40.73
34197;BME280;36594;45.192;5.722;2022-07-04T08:58:34;99286.12;;;29.92;40.78
34197;BME280;36594;45.192;5.722;2022-07-04T09:01:22;99297.48;;;29.93;40.72
34197;BME280;36594;45.192;5.722;2022-07-04T09:04:13;99294.96;;;29.94;40.76
34197;BME280;36594;45.192;5.722;2022-07-04T09:07:02;99297.20;;;29.92;40.89
34197;BME280;36594;45.192;5.722;2022-07-04T09:09:52;99299.40;;;29.95;40.83
34197;BME280;36594;45.192;5.722;2022-07-04T09:12:40;99298.55;;;29.97;40.81
34197;BME280;36594;45.192;5.722;2022-07-04T09:15:29;99300.78;;;29.95;40.89
34197;BME280;36594;45.192;5.722;2022-07-04T09:18:27;99306.86;;;29.97;40.95
34197;BME280;36594;45.192;5.722;2022-07-04T09:21:16;99311.55;;;29.99;40.95
34197;BME280;36594;45.192;5.722;2022-07-04T09:24:04;99326.25;;;29.97;41.11
34197;BME280;36594;45.192;5.722;2022-07-04T09:26:52;99326.52;;;30.01;41.12
34197;BME280;36594;45.192;5.722;2022-07-04T09:29:51;99331.48;;;30.01;41.17
34197;BME280;36594;45.192;5.722;2022-07-04T09:32:42;99339.53;;;30.00;41.16
34197;BME280;36594;45.192;5.722;2022-07-04T09:35:31;99351.18;;;29.97;41.23
34197;BME280;36594;45.192;5.722;2022-07-04T09:38:24;99347.56;;;29.99;41.01
34197;BME280;36594;45.192;5.722;2022-07-04T09:41:12;99358.12;;;29.95;41.08
34197;BME280;36594;45.192;5.722;2022-07-04T09:44:12;99358.39;;;29.98;40.95
34197;BME280;36594;45.192;5.722;2022-07-04T09:50:18;99339.00;;;29.98;40.81
34197;BME280;36594;45.192;5.722;2022-07-04T09:53:07;99365.48;;;29.63;41.03
34197;BME280;36594;45.192;5.722;2022-07-04T09:55:55;99339.24;;;29.46;41.10
34197;BME280;36594;45.192;5.722;2022-07-04T09:58:55;99359.23;;;29.35;41.27
34197;BME280;36594;45.192;5.722;2022-07-04T10:01:34;99347.64;;;29.23;41.58
34197;BME280;36594;45.192;5.722;2022-07-04T10:04:39;99372.53;;;29.28;41.55
34197;BME280;36594;45.192;5.722;2022-07-04T10:07:32;99351.54;;;29.22;41.78
34197;BME280;36594;45.192;5.722;2022-07-04T10:10:34;99345.70;;;29.28;41.70
34197;BME280;36594;45.192;5.722;2022-07-04T10:13:25;99351.17;;;29.38;41.66
34197;BME280;36594;45.192;5.722;2022-07-04T10:16:15;99330.47;;;29.31;41.72
34197;BME280;36594;45.192;5.722;2022-07-04T10:19:07;99318.57;;;29.30;41.63
34197;BME280;36594;45.192;5.722;2022-07-04T10:21:55;99311.68;;;29.23;42.02
34197;BME280;36594;45.192;5.722;2022-07-04T10:24:46;99339.09;;;29.19;41.99
34197;BME280;36594;45.192;5.722;2022-07-04T10:27:35;99313.34;;;29.26;41.95
34197;BME280;36594;45.192;5.722;2022-07-04T10:30:29;99298.03;;;29.41;41.84
34197;BME280;36594;45.192;5.722;2022-07-04T10:33:26;99287.48;;;29.49;41.62
34197;BME280;36594;45.192;5.722;2022-07-04T10:36:20;99276.98;;;29.43;41.73
34197;BME280;36594;45.192;5.722;2022-07-04T10:39:09;99270.56;;;29.53;41.61
34197;BME280;36594;45.192;5.722;2022-07-04T10:41:58;99261.13;;;29.61;41.45
34197;BME280;36594;45.192;5.722;2022-07-04T10:44:49;99250.80;;;29.72;41.36
34197;BME280;36594;45.192;5.722;2022-07-04T10:47:38;99244.95;;;29.78;41.25
34197;BME280;36594;45.192;5.722;2022-07-04T10:50:28;99246.31;;;29.83;41.13
34197;BME280;36594;45.192;5.722;2022-07-04T10:53:17;99245.17;;;29.89;41.06
34197;BME280;36594;45.192;5.722;2022-07-04T10:59:10;99225.45;;;29.96;40.85
34197;BME280;36594;45.192;5.722;2022-07-04T11:07:57;99207.72;;;29.94;40.56
34197;BME280;36594;45.192;5.722;2022-07-04T11:10:46;99211.38;;;29.87;40.80
34197;BME280;36594;45.192;5.722;2022-07-04T11:13:36;99200.05;;;29.86;40.43
34197;BME280;36594;45.192;5.722;2022-07-04T11:16:28;99198.81;;;30.00;40.26
34197;BME280;36594;45.192;5.722;2022-07-04T11:19:17;99193.21;;;30.07;40.08
34197;BME280;36594;45.192;5.722;2022-07-04T11:22:08;99189.05;;;30.07;39.85
34197;BME280;36594;45.192;5.722;2022-07-04T11:24:58;99196.84;;;30.05;40.04
34197;BME280;36594;45.192;5.722;2022-07-04T11:27:46;99205.44;;;30.01;40.08
34197;BME280;36594;45.192;5.722;2022-07-04T11:30:34;99207.46;;;29.93;40.20
34197;BME280;36594;45.192;5.722;2022-07-04T11:33:28;99210.80;;;29.90;40.28
34197;BME280;36594;45.192;5.722;2022-07-04T11:36:18;99197.38;;;29.69;40.38
34197;BME280;36594;45.192;5.722;2022-07-04T11:39:18;99181.62;;;29.64;40.60
34197;BME280;36594;45.192;5.722;2022-07-04T11:42:06;99167.18;;;29.72;41.02
34197;BME280;36594;45.192;5.722;2022-07-04T11:45:13;99159.34;;;29.87;40.86
34197;BME280;36594;45.192;5.722;2022-07-04T11:48:01;99160.61;;;29.97;40.46
34197;BME280;36594;45.192;5.722;2022-07-04T11:50:49;99154.70;;;30.06;40.38
34197;BME280;36594;45.192;5.722;2022-07-04T11:53:38;99151.03;;;30.13;40.03
34197;BME280;36594;45.192;5.722;2022-07-04T11:56:26;99151.86;;;30.14;40.19
34197;BME280;36594;45.192;5.722;2022-07-04T11:59:16;99133.55;;;30.18;40.07
34197;BME280;36594;45.192;5.722;2022-07-04T12:02:15;99115.23;;;30.19;40.08
34197;BME280;36594;45.192;5.722;2022-07-04T12:05:07;99102.41;;;30.26;39.88
34197;BME280;36594;45.192;5.722;2022-07-04T12:07:55;99082.68;;;30.30;39.63
34197;BME280;36594;45.192;5.722;2022-07-04T12:10:43;99082.13;;;30.33;39.54
34197;BME280;36594;45.192;5.722;2022-07-04T12:13:32;99084.05;;;30.35;39.42
34197;BME280;36594;45.192;5.722;2022-07-04T12:16:21;99091.50;;;30.37;39.23
34197;BME280;36594;45.192;5.722;2022-07-04T12:19:10;99092.36;;;30.35;39.21
34197;BME280;36594;45.192;5.722;2022-07-04T12:21:58;99090.97;;;30.32;39.34
34197;BME280;36594;45.192;5.722;2022-07-04T12:24:47;99105.38;;;30.32;39.35
34197;BME280;36594;45.192;5.722;2022-07-04T12:27:35;99088.48;;;30.36;39.38
34197;BME280;36594;45.192;5.722;2022-07-04T12:30:25;99069.05;;;30.38;39.26
34197;BME280;36594;45.192;5.722;2022-07-04T12:33:17;99075.67;;;30.40;39.32
34197;BME280;36594;45.192;5.722;2022-07-04T12:36:06;99063.75;;;30.39;39.35
34197;BME280;36594;45.192;5.722;2022-07-04T12:38:55;99030.73;;;30.43;39.31
34197;BME280;36594;45.192;5.722;2022-07-04T12:41:43;99032.95;;;30.43;39.12
34197;BME280;36594;45.192;5.722;2022-07-04T12:44:33;99029.05;;;30.44;39.15
34197;BME280;36594;45.192;5.722;2022-07-04T12:47:21;99011.55;;;30.46;39.06
34197;BME280;36594;45.192;5.722;2022-07-04T12:50:10;99020.42;;;30.46;39.19
34197;BME280;36594;45.192;5.722;2022-07-04T12:52:59;99025.06;;;30.50;39.12
34197;BME280;36594;45.192;5.722;2022-07-04T12:55:49;99013.95;;;30.53;39.13
34197;BME280;36594;45.192;5.722;2022-07-04T12:58:38;99045.80;;;30.55;39.08
34197;BME280;36594;45.192;5.722;2022-07-04T13:01:26;99021.12;;;30.56;38.95
34197;BME280;36594;45.192;5.722;2022-07-04T13:04:14;99037.20;;;30.57;38.71
34197;BME280;36594;45.192;5.722;2022-07-04T13:07:15;99024.72;;;30.57;38.71
34197;BME280;36594;45.192;5.722;2022-07-04T13:10:05;99003.69;;;30.53;38.75
34197;BME280;36594;45.192;5.722;2022-07-04T13:12:53;99034.19;;;30.53;38.71
34197;BME280;36594;45.192;5.722;2022-07-04T13:15:41;99034.67;;;30.58;38.76
34197;BME280;36594;45.192;5.722;2022-07-04T13:18:30;99008.34;;;30.58;38.90
34197;BME280;36594;45.192;5.722;2022-07-04T13:21:18;99015.79;;;30.60;38.92
34197;BME280;36594;45.192;5.722;2022-07-04T13:24:07;99028.27;;;30.60;39.03
34197;BME280;36594;45.192;5.722;2022-07-04T13:26:56;99010.28;;;30.57;39.00
34197;BME280;36594;45.192;5.722;2022-07-04T13:29:45;99006.70;;;30.57;38.88
34197;BME280;36594;45.192;5.722;2022-07-04T13:32:38;99000.91;;;30.53;39.04
34197;BME280;36594;45.192;5.722;2022-07-04T13:35:26;98979.53;;;30.56;38.97
34197;BME280;36594;45.192;5.722;2022-07-04T13:38:15;99003.41;;;30.55;39.03
34197;BME280;36594;45.192;5.722;2022-07-04T13:41:05;98997.66;;;30.49;39.08
34197;BME280;36594;45.192;5.722;2022-07-04T13:43:54;98995.75;;;30.47;39.08
34197;BME280;36594;45.192;5.722;2022-07-04T13:46:43;99002.67;;;30.47;39.14
34197;BME280;36594;45.192;5.722;2022-07-04T13:49:32;99000.43;;;30.49;39.20
34197;BME280;36594;45.192;5.722;2022-07-04T13:52:20;98993.50;;;30.49;39.09
34197;BME280;36594;45.192;5.722;2022-07-04T13:55:08;98991.25;;;30.51;39.15
34197;BME280;36594;45.192;5.722;2022-07-04T13:57:57;98994.85;;;30.51;39.11
34197;BME280;36594;45.192;5.722;2022-07-04T14:00:46;98995.69;;;30.52;39.19
34197;BME280;36594;45.192;5.722;2022-07-04T14:03:34;99005.04;;;30.56;39.18
34197;BME280;36594;45.192;5.722;2022-07-04T14:06:22;98988.44;;;30.53;39.14
34197;BME280;36594;45.192;5.722;2022-07-04T14:09:11;98995.93;;;30.53;39.13
34197;BME280;36594;45.192;5.722;2022-07-04T14:11:59;99021.98;;;30.54;39.23
34197;BME280;36594;45.192;5.722;2022-07-04T14:14:47;98985.64;;;30.56;39.20
34197;BME280;36594;45.192;5.722;2022-07-04T14:17:36;98979.53;;;30.56;39.19
34197;BME280;36594;45.192;5.722;2022-07-04T14:20:24;99011.66;;;30.57;39.15
34197;BME280;36594;45.192;5.722;2022-07-04T14:23:13;99002.79;;;30.58;39.21
34197;BME280;36594;45.192;5.722;2022-07-04T14:26:01;99020.25;;;30.58;39.28
34197;BME280;36594;45.192;5.722;2022-07-04T14:28:51;99007.78;;;30.58;39.28
34197;BME280;36594;45.192;5.722;2022-07-04T14:31:40;99008.34;;;30.58;39.37
34197;BME280;36594;45.192;5.722;2022-07-04T14:34:28;99012.77;;;30.59;39.43
34197;BME280;36594;45.192;5.722;2022-07-04T14:37:16;98978.11;;;30.59;39.45
34197;BME280;36594;45.192;5.722;2022-07-04T14:40:06;98985.88;;;30.59;39.42
34197;BME280;36594;45.192;5.722;2022-07-04T14:42:55;99017.77;;;30.59;39.47
34197;BME280;36594;45.192;5.722;2022-07-04T14:45:44;99015.55;;;30.59;39.44
34197;BME280;36594;45.192;5.722;2022-07-04T14:48:33;99005.56;;;30.58;39.39
34197;BME280;36594;45.192;5.722;2022-07-04T14:51:21;98998.91;;;30.59;39.40
34197;BME280;36594;45.192;5.722;2022-07-04T14:54:11;98987.27;;;30.59;39.36
34197;BME280;36594;45.192;5.722;2022-07-04T14:56:59;99013.30;;;30.61;39.37
34197;BME280;36594;45.192;5.722;2022-07-04T14:59:47;98998.05;;;30.61;39.35
34197;BME280;36594;45.192;5.722;2022-07-04T15:02:36;98998.05;;;30.61;39.33
34197;BME280;36594;45.192;5.722;2022-07-04T15:05:24;98996.94;;;30.62;39.25
34197;BME280;36594;45.192;5.722;2022-07-04T15:08:12;99017.77;;;30.59;39.23
34197;BME280;36594;45.192;5.722;2022-07-04T15:11:01;99006.91;;;30.60;39.10